Time;durP1;ratioP1;P1;durP2;ratioP2;P2;SDS_P1;SDS_P2;PMS_P1;PMS_P2;Temp;Humidity;BMP_temperature;BMP_pressure;BME280_temperature;BME280_humidity;BME280_pressure;Samples;Min_cycle;Max_cycle;Signal;HPM_P1;HPM_P2
2022/04/06 00:01:36;;;;;;;;;;;7.30;87.30;;;;;;5092989;28;19908;-89
2022/04/06 00:04:01;;;;;;;;;;;7.40;87.40;;;;;;5080566;28;20377;-89
2022/04/06 00:06:27;;;;;;;;;;;7.40;87.50;;;;;;5072632;28;20386;-89
2022/04/06 00:08:52;;;;;;;;;;;7.50;87.50;;;;;;5072593;28;19909;-89
2022/04/06 00:11:18;;;;;;;;;;;7.70;86.90;;;;;;5072620;28;19958;-89
2022/04/06 00:13:43;;;;;;;;;;;7.70;86.60;;;;;;5082703;28;19999;-89
2022/04/06 00:16:09;;;;;;;;;;;7.70;85.70;;;;;;5096663;28;19912;-90
2022/04/06 00:18:35;;;;;;;;;;;7.70;85.30;;;;;;5096590;28;19908;-89
2022/04/06 00:21:00;;;;;;;;;;;7.60;85.10;;;;;;5096552;28;19912;-89
2022/04/06 00:23:26;;;;;;;;;;;7.50;85.30;;;;;;5095816;28;19963;-89
2022/04/06 00:25:51;;;;;;;;;;;7.40;86.10;;;;;;5096450;28;19912;-89
2022/04/06 00:28:17;;;;;;;;;;;7.40;86.40;;;;;;5096208;28;19962;-89
2022/04/06 00:30:42;;;;;;;;;;;7.40;86.50;;;;;;5096620;28;19962;-89
2022/04/06 00:33:08;;;;;;;;;;;7.30;86.30;;;;;;5092138;28;20397;-89
2022/04/06 00:35:33;;;;;;;;;;;7.20;86.40;;;;;;5076014;28;19908;-89
2022/04/06 00:38:01;;;;;;;;;;;7.20;86.80;;;;;;5075927;28;19912;-90
2022/04/06 00:40:27;;;;;;;;;;;7.30;87.00;;;;;;5075985;28;19908;-89
2022/04/06 00:42:53;;;;;;;;;;;7.30;87.60;;;;;;5076011;28;20281;-89
2022/04/06 00:45:22;;;;;;;;;;;7.40;87.70;;;;;;5096741;28;19940;-90
2022/04/06 00:47:48;;;;;;;;;;;7.30;87.80;;;;;;5096013;28;19912;-90
2022/04/06 00:50:14;;;;;;;;;;;7.20;87.90;;;;;;5096007;28;20354;-90
2022/04/06 00:52:40;;;;;;;;;;;7.10;88.20;;;;;;5095950;28;19915;-89
2022/04/06 00:55:06;;;;;;;;;;;7.10;88.30;;;;;;5090961;28;20011;-90
2022/04/06 00:57:32;;;;;;;;;;;6.90;88.00;;;;;;5095922;28;19912;-90
2022/04/06 00:59:58;;;;;;;;;;;6.90;88.40;;;;;;5095966;28;19916;-89
2022/04/06 01:02:24;;;;;;;;;;;6.90;89.40;;;;;;5095823;28;19908;-89
2022/04/06 01:04:49;;;;;;;;;;;6.90;89.50;;;;;;5078007;28;19919;-89
2022/04/06 01:07:15;;;;;;;;;;;6.90;89.30;;;;;;5075358;28;19912;-89
2022/04/06 01:09:41;;;;;;;;;;;7.00;89.00;;;;;;5075364;28;20374;-88
2022/04/06 01:12:06;;;;;;;;;;;7.00;88.50;;;;;;5075354;28;19908;-90
2022/04/06 01:14:32;;;;;;;;;;;6.90;88.70;;;;;;5089986;28;19919;-89
2022/04/06 01:17:02;;;;;;;;;;;6.90;88.80;;;;;;5095541;28;19911;-89
2022/04/06 01:19:34;;;;;;;;;;;6.90;88.20;;;;;;5095522;28;19921;-89
2022/04/06 01:21:59;;;;;;;;;;;6.90;87.90;;;;;;5093636;28;19915;-89
2022/04/06 01:24:25;;;;;;;;;;;6.90;87.70;;;;;;5095291;28;19909;-89
2022/04/06 01:26:51;;;;;;;;;;;6.90;87.70;;;;;;5095089;28;19921;-89
2022/04/06 01:29:16;;;;;;;;;;;6.90;88.00;;;;;;5095300;28;19923;-89
2022/04/06 01:31:42;;;;;;;;;;;6.90;87.90;;;;;;5092418;28;20361;-89
2022/04/06 01:34:07;;;;;;;;;;;6.80;87.40;;;;;;5074980;28;19909;-88
2022/04/06 01:36:33;;;;;;;;;;;6.70;86.20;;;;;;5075154;28;20361;-89
2022/04/06 01:38:58;;;;;;;;;;;6.40;86.00;;;;;;5074863;28;20450;-90
2022/04/06 01:41:30;;;;;;;;;;;6.40;86.60;;;;;;5074802;28;20000;-89
2022/04/06 01:43:55;;;;;;;;;;;6.40;86.60;;;;;;5074736;28;19931;-89
2022/04/06 01:46:21;;;;;;;;;;;6.40;86.50;;;;;;5074619;28;20294;-89
2022/04/06 01:54:14;;;;;;;;;;;6.20;89.00;;;;;;5094790;28;20273;-89
2022/04/06 01:56:40;;;;;;;;;;;6.20;89.10;;;;;;5094745;28;19912;-89
2022/04/06 01:59:06;;;;;;;;;;;6.10;89.30;;;;;;5094749;28;20015;-90
2022/04/06 02:01:31;;;;;;;;;;;6.10;89.40;;;;;;5093911;28;19995;-89
2022/04/06 02:03:57;;;;;;;;;;;6.20;89.20;;;;;;5094574;28;19916;-89
2022/04/06 02:06:23;;;;;;;;;;;6.20;88.50;;;;;;5094552;28;19909;-89
2022/04/06 02:08:48;;;;;;;;;;;6.20;86.10;;;;;;5094372;28;20003;-89
2022/04/06 02:11:14;;;;;;;;;;;6.20;84.90;;;;;;5094490;28;20031;-88
2022/04/06 02:13:39;;;;;;;;;;;6.20;84.00;;;;;;5093515;28;19912;-88
2022/04/06 02:16:05;;;;;;;;;;;6.30;84.10;;;;;;5094328;28;19908;-90
2022/04/06 02:18:30;;;;;;;;;;;6.20;84.50;;;;;;5094350;28;19919;-89
2022/04/06 02:20:57;;;;;;;;;;;6.00;83.40;;;;;;5094289;28;19908;-89
2022/04/06 02:23:22;;;;;;;;;;;5.50;84.80;;;;;;5079153;28;20003;-89
2022/04/06 02:25:48;;;;;;;;;;;5.20;87.40;;;;;;5073913;28;19999;-89
2022/04/06 02:28:14;;;;;;;;;;;5.10;88.80;;;;;;5073661;28;20057;-90
2022/04/06 02:30:39;;;;;;;;;;;5.20;89.60;;;;;;5073742;28;20374;-89
2022/04/06 02:33:05;;;;;;;;;;;5.30;90.30;;;;;;5085976;28;19912;-89
2022/04/06 02:35:30;;;;;;;;;;;5.50;90.70;;;;;;5093953;28;19911;-89
2022/04/06 02:37:57;;;;;;;;;;;5.70;90.90;;;;;;5093469;28;19916;-89
2022/04/06 02:40:22;;;;;;;;;;;5.70;90.60;;;;;;5094146;28;19908;-89
2022/04/06 02:42:48;;;;;;;;;;;5.80;90.30;;;;;;5083928;28;19919;-89
2022/04/06 02:45:13;;;;;;;;;;;5.80;90.40;;;;;;5073507;28;19909;-89
2022/04/06 02:47:39;;;;;;;;;;;5.70;90.30;;;;;;5073414;28;19912;-89
2022/04/06 02:50:05;;;;;;;;;;;5.70;90.30;;;;;;5073443;28;19908;-89
2022/04/06 02:52:31;;;;;;;;;;;5.70;90.30;;;;;;5080502;28;19922;-89
2022/04/06 02:54:56;;;;;;;;;;;5.60;90.30;;;;;;5093937;28;20014;-90
2022/04/06 02:57:22;;;;;;;;;;;5.60;90.60;;;;;;5093561;28;19909;-89
2022/04/06 02:59:47;;;;;;;;;;;5.60;91.10;;;;;;5093538;28;19944;-89
2022/04/06 03:02:13;;;;;;;;;;;5.60;90.50;;;;;;5088664;28;19966;-89
2022/04/06 03:04:38;;;;;;;;;;;5.60;89.70;;;;;;5073192;28;19956;-89
2022/04/06 03:07:04;;;;;;;;;;;5.70;89.50;;;;;;5073138;28;19912;-89
2022/04/06 03:09:29;;;;;;;;;;;5.70;89.40;;;;;;5073165;28;19909;-90
2022/04/06 03:11:55;;;;;;;;;;;5.70;88.80;;;;;;5074825;28;19908;-89
2022/04/06 03:14:20;;;;;;;;;;;5.70;87.80;;;;;;5093330;28;19912;-89
2022/04/06 03:16:46;;;;;;;;;;;5.50;86.60;;;;;;5093372;28;20285;-89
2022/04/06 03:19:11;;;;;;;;;;;5.40;87.00;;;;;;5093571;28;19912;-89
2022/04/06 03:21:37;;;;;;;;;;;5.40;87.40;;;;;;5093328;28;19989;-89
2022/04/06 03:24:03;;;;;;;;;;;5.50;87.10;;;;;;5092921;28;19989;-89
2022/04/06 03:26:28;;;;;;;;;;;5.60;86.60;;;;;;5100404;22;19966;-90
2022/04/06 03:28:54;;;;;;;;;;;5.60;86.60;;;;;;5093464;28;19923;-89
2022/04/06 03:31:19;;;;;;;;;;;5.60;86.80;;;;;;5091836;28;19912;-89
2022/04/06 03:33:45;;;;;;;;;;;5.60;86.60;;;;;;5076652;28;19909;-89
2022/04/06 03:36:10;;;;;;;;;;;5.50;86.50;;;;;;5072960;28;20332;-89
2022/04/06 03:38:36;;;;;;;;;;;5.40;86.10;;;;;;5073234;28;19930;-88
2022/04/06 03:41:02;;;;;;;;;;;5.40;86.90;;;;;;5072946;28;19955;-89
2022/04/06 03:43:29;;;;;;;;;;;5.40;87.80;;;;;;5084404;28;20457;-90
2022/04/06 03:45:54;;;;;;;;;;;5.40;88.20;;;;;;5093072;28;20297;-89
2022/04/06 03:48:22;;;;;;;;;;;5.40;88.40;;;;;;5093588;28;19912;-89
2022/04/06 03:50:49;;;;;;;;;;;5.50;88.60;;;;;;5097233;28;19915;-89
2022/04/06 03:53:15;;;;;;;;;;;5.40;88.20;;;;;;5096784;28;19916;-89
2022/04/06 03:55:40;;;;;;;;;;;5.30;88.20;;;;;;5097025;28;19916;-89
2022/04/06 03:58:06;;;;;;;;;;;5.30;88.40;;;;;;5097006;28;19909;-89
2022/04/06 04:00:32;;;;;;;;;;;5.30;88.20;;;;;;5096991;28;19930;-89
2022/04/06 04:02:57;;;;;;;;;;;5.30;88.60;;;;;;5087413;28;19909;-89
2022/04/06 04:05:23;;;;;;;;;;;5.20;89.90;;;;;;5076629;28;20389;-89
2022/04/06 04:07:48;;;;;;;;;;;5.10;90.50;;;;;;5076489;28;20277;-89
2022/04/06 04:10:19;;;;;;;;;;;5.00;91.10;;;;;;5076347;28;19958;-89
2022/04/06 04:12:45;;;;;;;;;;;5.00;90.70;;;;;;5083703;28;19908;-89
2022/04/06 04:15:10;;;;;;;;;;;4.90;90.30;;;;;;5096645;28;19941;-89
2022/04/06 04:17:36;;;;;;;;;;;4.90;90.80;;;;;;5096885;28;19944;-89
2022/04/06 04:20:02;;;;;;;;;;;4.80;90.50;;;;;;5096608;28;20328;-89
2022/04/06 04:22:29;;;;;;;;;;;4.60;89.90;;;;;;5096370;28;19959;-88
2022/04/06 04:24:54;;;;;;;;;;;4.60;90.00;;;;;;5096534;28;19978;-88
2022/04/06 04:27:20;;;;;;;;;;;4.60;90.70;;;;;;5094944;28;20393;-89
2022/04/06 04:29:46;;;;;;;;;;;4.60;90.80;;;;;;5096379;28;19912;-89
2022/04/06 04:32:11;;;;;;;;;;;4.50;91.50;;;;;;5096077;28;20012;-89
2022/04/06 04:34:37;;;;;;;;;;;4.50;91.80;;;;;;5096340;28;20328;-88
2022/04/06 04:37:03;;;;;;;;;;;4.40;91.70;;;;;;5096332;28;19914;-88
2022/04/06 04:39:28;;;;;;;;;;;4.60;92.40;;;;;;5096216;28;19946;-89
2022/04/06 04:41:54;;;;;;;;;;;4.70;92.50;;;;;;5096487;28;19908;-88
2022/04/06 04:44:20;;;;;;;;;;;4.70;92.10;;;;;;5095639;28;19964;-89
2022/04/06 04:46:45;;;;;;;;;;;4.50;91.80;;;;;;5096129;28;20286;-89
2022/04/06 04:49:11;;;;;;;;;;;4.40;91.50;;;;;;5083959;28;19924;-90
2022/04/06 04:51:37;;;;;;;;;;;4.40;91.50;;;;;;5075795;28;19915;-90
2022/04/06 04:54:03;;;;;;;;;;;4.30;91.40;;;;;;5092701;28;19919;-90
2022/04/06 04:56:30;;;;;;;;;;;4.30;91.30;;;;;;5095928;28;20052;-89
2022/04/06 04:58:56;;;;;;;;;;;4.10;90.80;;;;;;5095208;28;19908;-89
2022/04/06 05:01:22;;;;;;;;;;;3.90;90.90;;;;;;5095486;28;19909;-89
2022/04/06 05:03:48;;;;;;;;;;;4.00;92.40;;;;;;5095531;28;19957;-89
2022/04/06 05:06:14;;;;;;;;;;;4.10;93.40;;;;;;5083005;28;19909;-89
2022/04/06 05:08:39;;;;;;;;;;;4.20;94.20;;;;;;5092823;28;20271;-89
2022/04/06 05:11:05;;;;;;;;;;;4.30;94.00;;;;;;5095340;28;19912;-89
2022/04/06 05:13:31;;;;;;;;;;;4.30;94.00;;;;;;5095423;28;19916;-89
2022/04/06 05:18:25;;;;;;;;;;;4.40;93.60;;;;;;5100094;27;2054457;-89
2022/04/06 05:20:53;;;;;;;;;;;4.60;92.50;;;;;;5172942;27;20341;-89
2022/04/06 05:23:18;;;;;;;;;;;4.70;92.30;;;;;;5152072;27;19907;-89
2022/04/06 05:25:44;;;;;;;;;;;4.80;92.30;;;;;;5153739;27;19926;-88
2022/04/06 05:28:09;;;;;;;;;;;4.90;92.00;;;;;;5157165;27;19908;-89
2022/04/06 05:30:37;;;;;;;;;;;4.90;91.60;;;;;;5155756;27;19911;-89
2022/04/06 05:36:33;;;;;;;;;;;5.00;91.40;;;;;;5108028;27;19923;-89
2022/04/06 05:38:58;;;;;;;;;;;5.00;91.30;;;;;;5094444;28;19918;-89
2022/04/06 05:41:24;;;;;;;;;;;5.10;91.30;;;;;;5092079;28;19958;-89
2022/04/06 05:43:50;;;;;;;;;;;5.10;91.10;;;;;;5100387;28;20398;-89
2022/04/06 05:46:15;;;;;;;;;;;5.20;91.00;;;;;;5107410;28;19994;-89
2022/04/06 05:48:41;;;;;;;;;;;5.20;90.70;;;;;;5101038;28;20270;-89
2022/04/06 05:51:06;;;;;;;;;;;5.20;90.50;;;;;;5094575;28;19912;-89
2022/04/06 05:53:32;;;;;;;;;;;5.20;90.60;;;;;;5097475;28;19912;-89
2022/04/06 05:55:57;;;;;;;;;;;5.30;90.80;;;;;;5097077;28;19924;-89
2022/04/06 05:58:23;;;;;;;;;;;5.20;90.90;;;;;;5097442;28;20379;-89
2022/04/06 06:00:49;;;;;;;;;;;5.20;90.90;;;;;;5095254;28;19948;-89
2022/04/06 06:03:14;;;;;;;;;;;5.30;91.00;;;;;;5093381;28;19919;-89
2022/04/06 06:05:40;;;;;;;;;;;5.40;91.40;;;;;;5098171;27;19974;-88
2022/04/06 06:08:05;;;;;;;;;;;5.60;91.80;;;;;;5100350;28;19946;-87
2022/04/06 06:10:31;;;;;;;;;;;5.80;91.70;;;;;;5104140;28;19938;-88
2022/04/06 06:12:58;;;;;;;;;;;5.80;91.70;;;;;;5107108;28;20378;-87
2022/04/06 06:15:24;;;;;;;;;;;5.80;92.00;;;;;;5104584;28;19924;-87
2022/04/06 06:17:49;;;;;;;;;;;5.80;92.30;;;;;;5100775;28;19920;-88
2022/04/06 06:20:24;;;;;;;;;;;5.90;92.50;;;;;;5104942;27;20459;-88
2022/04/06 06:22:49;;;;;;;;;;;6.00;92.70;;;;;;5104696;28;19916;-88
2022/04/06 06:25:15;;;;;;;;;;;6.00;93.20;;;;;;5098040;28;19999;-88
2022/04/06 06:27:41;;;;;;;;;;;6.20;93.30;;;;;;5100461;28;19916;-88
2022/04/06 06:30:07;;;;;;;;;;;6.40;93.40;;;;;;5105831;28;19939;-88
2022/04/06 06:32:33;;;;;;;;;;;6.40;93.10;;;;;;5099474;28;19922;-88
2022/04/06 06:37:35;;;;;;;;;;;6.60;93.00;;;;;;5103522;27;19923;-88
2022/04/06 06:43:19;;;;;;;;;;;6.90;92.70;;;;;;5082909;27;20328;-88
2022/04/06 06:45:45;;;;;;;;;;;7.20;92.70;;;;;;5084549;28;20382;-88
2022/04/06 06:48:10;;;;;;;;;;;7.20;92.80;;;;;;5083260;28;19916;-88
2022/04/06 06:50:36;;;;;;;;;;;7.40;92.90;;;;;;5086005;28;19912;-88
2022/04/06 06:53:02;;;;;;;;;;;7.40;92.90;;;;;;5083701;28;19919;-89
2022/04/06 06:55:27;;;;;;;;;;;7.50;92.80;;;;;;5086776;28;19916;-88
2022/04/06 06:57:53;;;;;;;;;;;7.60;92.60;;;;;;5085806;28;19927;-88
2022/04/06 07:00:18;;;;;;;;;;;7.80;92.60;;;;;;5085952;28;19912;-88
2022/04/06 07:02:44;;;;;;;;;;;7.90;92.60;;;;;;5081027;28;19924;-88
2022/04/06 07:05:11;;;;;;;;;;;8.10;92.70;;;;;;5089479;28;19912;-88
2022/04/06 07:07:52;;;;;;;;;;;8.30;92.70;;;;;;5086415;28;19957;-88
2022/04/06 07:10:17;;;;;;;;;;;8.60;92.40;;;;;;5084363;28;19920;-88
2022/04/06 07:12:43;;;;;;;;;;;8.80;91.90;;;;;;5082482;28;20292;-89
2022/04/06 07:15:08;;;;;;;;;;;9.10;91.40;;;;;;5086878;28;20292;-88
2022/04/06 07:17:34;;;;;;;;;;;9.30;90.80;;;;;;5083077;28;20021;-88
2022/04/06 07:19:59;;;;;;;;;;;9.50;89.10;;;;;;5084334;28;20270;-88
2022/04/06 07:22:25;;;;;;;;;;;9.60;88.70;;;;;;5082828;28;19986;-88
2022/04/06 07:24:51;;;;;;;;;;;9.70;88.40;;;;;;5083314;28;20302;-88
2022/04/06 07:27:16;;;;;;;;;;;9.70;88.50;;;;;;5080081;28;19927;-88
2022/04/06 07:29:42;;;;;;;;;;;9.70;88.70;;;;;;5086905;28;19974;-88
2022/04/06 07:32:08;;;;;;;;;;;9.90;88.90;;;;;;5084095;28;19924;-88
2022/04/06 07:34:34;;;;;;;;;;;9.90;89.00;;;;;;5081120;28;20005;-89
2022/04/06 07:36:59;;;;;;;;;;;10.00;89.30;;;;;;5081057;28;20002;-88
2022/04/06 07:39:26;;;;;;;;;;;10.20;89.50;;;;;;5093214;28;19913;-88
2022/04/06 07:41:52;;;;;;;;;;;10.30;89.40;;;;;;5087357;28;19924;-88
2022/04/06 07:44:17;;;;;;;;;;;10.40;89.20;;;;;;5079114;28;19920;-88
2022/04/06 07:46:43;;;;;;;;;;;10.60;88.50;;;;;;5079065;28;19909;-89
2022/04/06 07:49:08;;;;;;;;;;;10.70;88.60;;;;;;5087129;28;19923;-88
2022/04/06 07:51:36;;;;;;;;;;;10.80;88.70;;;;;;5081677;28;19921;-88
2022/04/06 07:54:02;;;;;;;;;;;11.00;89.00;;;;;;5072461;28;19920;-88
2022/04/06 07:56:27;;;;;;;;;;;11.00;88.80;;;;;;5069107;28;19932;-87
2022/04/06 07:58:53;;;;;;;;;;;11.10;87.40;;;;;;5064222;28;19921;-88
2022/04/06 08:01:19;;;;;;;;;;;11.20;86.70;;;;;;5069695;28;19925;-88
2022/04/06 08:03:44;;;;;;;;;;;11.30;86.40;;;;;;5066975;28;19912;-88
2022/04/06 08:06:10;;;;;;;;;;;11.40;87.60;;;;;;5064541;28;20293;-88
2022/04/06 08:08:36;;;;;;;;;;;11.40;87.40;;;;;;5065004;28;20255;-88
2022/04/06 08:11:01;;;;;;;;;;;11.60;86.90;;;;;;5070569;28;20312;-88
2022/04/06 08:13:27;;;;;;;;;;;11.70;86.30;;;;;;5066787;28;19916;-89
2022/04/06 08:15:52;;;;;;;;;;;11.80;86.40;;;;;;5068982;28;20289;-88
2022/04/06 08:18:19;;;;;;;;;;;12.00;84.50;;;;;;5071592;28;20208;-89
2022/04/06 08:20:45;;;;;;;;;;;12.20;83.90;;;;;;5067953;28;19927;-88
2022/04/06 08:23:11;;;;;;;;;;;12.40;82.60;;;;;;5068450;28;19921;-89
2022/04/06 08:25:36;;;;;;;;;;;12.40;80.10;;;;;;5070181;28;19916;-88
2022/04/06 08:28:02;;;;;;;;;;;12.30;79.20;;;;;;5066276;28;20375;-88
2022/04/06 08:30:28;;;;;;;;;;;12.30;77.80;;;;;;5068870;28;19934;-88
2022/04/06 08:32:58;;;;;;;;;;;12.40;77.00;;;;;;5069605;28;20368;-88
2022/04/06 08:35:24;;;;;;;;;;;12.40;76.20;;;;;;5066601;28;20466;-88
2022/04/06 08:37:51;;;;;;;;;;;12.50;77.50;;;;;;5072542;28;20007;-88
2022/04/06 08:40:17;;;;;;;;;;;12.60;76.30;;;;;;5064573;28;19909;-88
2022/04/06 08:42:43;;;;;;;;;;;12.80;75.60;;;;;;5065355;28;19947;-88
2022/04/06 08:45:09;;;;;;;;;;;12.90;77.90;;;;;;5067166;28;19920;-89
2022/04/06 08:47:34;;;;;;;;;;;13.10;77.90;;;;;;5064148;28;19923;-88
2022/04/06 08:50:03;;;;;;;;;;;13.30;75.90;;;;;;5064830;28;20286;-88
2022/04/06 08:52:38;;;;;;;;;;;13.50;74.60;;;;;;5065676;28;21436;-89
2022/04/06 08:55:04;;;;;;;;;;;13.60;72.60;;;;;;5062887;28;20007;-88
2022/04/06 08:57:32;;;;;;;;;;;13.80;69.60;;;;;;5061731;28;20015;-88
2022/04/06 09:03:09;;;;;;;;;;;13.90;72.10;;;;;;5087621;27;20370;-88
2022/04/06 09:05:35;;;;;;;;;;;13.90;71.40;;;;;;5082363;28;19916;-89
2022/04/06 09:08:01;;;;;;;;;;;13.90;69.20;;;;;;5075911;28;21533;-88
2022/04/06 09:10:31;;;;;;;;;;;13.80;67.90;;;;;;5070865;28;19948;-88
2022/04/06 09:13:10;;;;;;;;;;;13.80;70.10;;;;;;5072452;28;19966;-89
2022/04/06 09:15:36;;;;;;;;;;;13.90;72.30;;;;;;5068015;28;20086;-88
2022/04/06 09:18:02;;;;;;;;;;;14.10;69.70;;;;;;5069822;28;19914;-88
2022/04/06 09:20:29;;;;;;;;;;;14.20;67.10;;;;;;5063209;28;19923;-88
2022/04/06 09:22:55;;;;;;;;;;;14.20;69.30;;;;;;5070598;28;19927;-89
2022/04/06 09:25:20;;;;;;;;;;;14.40;70.00;;;;;;5067355;28;19913;-89
2022/04/06 09:27:46;;;;;;;;;;;14.50;69.40;;;;;;5065666;28;19920;-88
2022/04/06 09:30:11;;;;;;;;;;;14.70;68.90;;;;;;5065434;28;19917;-89
2022/04/06 09:32:39;;;;;;;;;;;14.90;68.30;;;;;;5066625;28;19921;-89
2022/04/06 09:35:25;;;;;;;;;;;15.10;68.10;;;;;;5066983;28;19951;-88
2022/04/06 09:38:07;;;;;;;;;;;15.30;66.60;;;;;;5066678;28;20031;-88
2022/04/06 09:40:32;;;;;;;;;;;15.20;64.70;;;;;;5068650;28;19913;-89
2022/04/06 09:42:58;;;;;;;;;;;15.20;62.70;;;;;;5067804;28;19924;-88
2022/04/06 09:48:14;;;;;;;;;;;15.10;61.60;;;;;;5070276;28;20082;-89
2022/04/06 09:50:42;;;;;;;;;;;15.20;61.90;;;;;;5067279;28;20090;-88
2022/04/06 09:53:07;;;;;;;;;;;15.30;63.70;;;;;;5068090;28;20375;-88
2022/04/06 09:55:33;;;;;;;;;;;15.40;64.00;;;;;;5066118;28;20000;-89
2022/04/06 09:58:02;;;;;;;;;;;15.60;64.40;;;;;;5076446;28;19916;-89
2022/04/06 10:00:29;;;;;;;;;;;15.80;62.40;;;;;;5065800;28;19916;-89
2022/04/06 10:03:15;;;;;;;;;;;16.10;60.20;;;;;;5066127;28;20398;-89
2022/04/06 10:05:42;;;;;;;;;;;16.20;59.40;;;;;;5064333;28;19919;-89
2022/04/06 10:08:09;;;;;;;;;;;16.40;61.60;;;;;;5063168;28;20275;-89
2022/04/06 10:10:40;;;;;;;;;;;16.60;61.70;;;;;;5067746;28;19958;-89
2022/04/06 10:13:07;;;;;;;;;;;16.70;57.20;;;;;;5059582;28;19935;-89
2022/04/06 10:15:34;;;;;;;;;;;16.80;56.40;;;;;;5055643;28;20323;-88
2022/04/06 10:18:00;;;;;;;;;;;16.60;58.20;;;;;;5055223;28;20180;-88
2022/04/06 10:20:29;;;;;;;;;;;16.40;57.70;;;;;;5055136;28;20299;-89
2022/04/06 10:22:54;;;;;;;;;;;16.30;58.80;;;;;;5055478;28;19935;-89
2022/04/06 10:25:35;;;;;;;;;;;16.30;60.10;;;;;;5055587;28;20302;-89
2022/04/06 10:28:04;;;;;;;;;;;16.30;59.70;;;;;;5055466;28;19908;-88
2022/04/06 10:30:29;;;;;;;;;;;16.20;58.20;;;;;;5055426;28;19936;-88
2022/04/06 10:32:58;;;;;;;;;;;16.10;56.10;;;;;;5055401;28;20283;-89
2022/04/06 10:35:24;;;;;;;;;;;16.00;57.30;;;;;;5055384;28;19915;-89
2022/04/06 10:37:51;;;;;;;;;;;16.10;58.50;;;;;;5055569;28;19999;-89
2022/04/06 10:40:17;;;;;;;;;;;16.40;58.90;;;;;;5054991;28;19917;-89
2022/04/06 10:42:45;;;;;;;;;;;16.70;57.00;;;;;;5055208;28;19952;-89
2022/04/06 10:45:29;;;;;;;;;;;16.90;55.20;;;;;;5055443;28;19947;-89
2022/04/06 10:48:18;;;;;;;;;;;17.20;53.90;;;;;;5055225;28;19955;-89
2022/04/06 10:50:48;;;;;;;;;;;17.50;53.20;;;;;;5055054;28;20377;-89
2022/04/06 10:53:22;;;;;;;;;;;17.30;52.80;;;;;;5055074;28;19909;-89
2022/04/06 10:56:22;;;;;;;;;;;17.30;56.00;;;;;;5055047;28;19909;-88
2022/04/06 10:58:55;;;;;;;;;;;17.30;55.40;;;;;;5054592;28;19913;-89
2022/04/06 11:01:29;;;;;;;;;;;17.30;54.20;;;;;;5054690;28;19927;-89
2022/04/06 11:03:56;;;;;;;;;;;17.40;53.60;;;;;;5054851;28;19962;-89
2022/04/06 11:06:59;;;;;;;;;;;17.70;51.60;;;;;;5054427;28;19913;-89
2022/04/06 11:12:11;;;;;;;;;;;18.10;50.30;;;;;;5055021;28;20144;-89
2022/04/06 11:14:36;;;;;;;;;;;18.10;48.90;;;;;;5054490;28;19920;-89
2022/04/06 11:17:22;;;;;;;;;;;18.20;50.70;;;;;;5054561;28;20285;-89
2022/04/06 11:19:49;;;;;;;;;;;18.50;49.00;;;;;;5054401;28;19909;-89
2022/04/06 11:22:15;;;;;;;;;;;18.80;49.60;;;;;;5052507;28;19959;-88
2022/04/06 11:24:40;;;;;;;;;;;18.80;47.40;;;;;;5052649;28;20363;-89
2022/04/06 11:27:06;;;;;;;;;;;18.80;49.90;;;;;;5054107;28;19913;-89
2022/04/06 11:29:36;;;;;;;;;;;18.80;50.00;;;;;;5052958;28;19917;-89
2022/04/06 11:32:06;;;;;;;;;;;18.60;48.90;;;;;;5052804;28;19924;-89
2022/04/06 11:34:36;;;;;;;;;;;18.40;50.00;;;;;;5046496;28;19920;-89
2022/04/06 11:37:02;;;;;;;;;;;18.10;47.10;;;;;;5052439;28;19912;-89
2022/04/06 11:39:28;;;;;;;;;;;17.80;51.20;;;;;;5051361;28;19967;-89
2022/04/06 11:41:53;;;;;;;;;;;17.80;49.30;;;;;;5051418;28;19917;-89
2022/04/06 11:44:21;;;;;;;;;;;17.90;50.50;;;;;;5049111;28;19921;-89
2022/04/06 11:46:46;;;;;;;;;;;18.40;51.80;;;;;;5051037;28;19920;-89
2022/04/06 11:49:12;;;;;;;;;;;18.60;50.10;;;;;;5058207;28;19913;-89
2022/04/06 11:51:39;;;;;;;;;;;18.90;48.00;;;;;;5051194;28;20354;-89
2022/04/06 11:54:05;;;;;;;;;;;19.10;49.90;;;;;;5048542;28;19919;-89
2022/04/06 11:56:31;;;;;;;;;;;19.20;49.10;;;;;;5046692;28;20310;-90
2022/04/06 11:58:57;;;;;;;;;;;19.40;47.00;;;;;;5051127;28;19917;-89
2022/04/06 12:01:28;;;;;;;;;;;19.80;47.40;;;;;;5048531;28;19982;-89
2022/04/06 12:03:58;;;;;;;;;;;20.00;47.10;;;;;;5055049;28;19921;-89
2022/04/06 12:06:30;;;;;;;;;;;20.30;47.80;;;;;;5053712;28;19940;-89
2022/04/06 12:08:56;;;;;;;;;;;20.30;46.80;;;;;;5058733;28;20004;-89
2022/04/06 12:11:21;;;;;;;;;;;20.10;47.60;;;;;;5052780;28;20378;-89
2022/04/06 12:13:47;;;;;;;;;;;20.30;46.90;;;;;;5051561;28;19924;-90
2022/04/06 12:16:13;;;;;;;;;;;20.30;46.30;;;;;;5052345;28;19912;-90
2022/04/06 12:18:39;;;;;;;;;;;20.50;46.20;;;;;;5057488;28;19920;-90
2022/04/06 12:21:17;;;;;;;;;;;20.70;45.10;;;;;;5060384;28;19965;-89
2022/04/06 12:23:47;;;;;;;;;;;20.80;45.50;;;;;;5048963;28;19963;-90
2022/04/06 12:26:12;;;;;;;;;;;20.80;45.50;;;;;;5052630;28;20013;-90
2022/04/06 12:28:38;;;;;;;;;;;20.90;44.50;;;;;;5053743;28;20015;-89
2022/04/06 12:31:07;;;;;;;;;;;20.70;45.70;;;;;;5057269;28;20086;-89
2022/04/06 12:33:44;;;;;;;;;;;20.40;45.40;;;;;;5054255;28;19921;-89
2022/04/06 12:36:25;;;;;;;;;;;20.00;47.00;;;;;;5052304;28;19964;-89
2022/04/06 12:39:10;;;;;;;;;;;19.60;48.40;;;;;;5053888;28;19912;-89
2022/04/06 12:42:06;;;;;;;;;;;19.40;48.70;;;;;;5047139;28;20011;-89
2022/04/06 12:44:33;;;;;;;;;;;19.50;49.60;;;;;;5049806;28;20429;-90
2022/04/06 12:46:59;;;;;;;;;;;19.60;48.10;;;;;;5051638;28;19925;-89
2022/04/06 12:49:41;;;;;;;;;;;19.90;44.50;;;;;;5055316;28;19913;-89
2022/04/06 12:52:18;;;;;;;;;;;20.30;45.90;;;;;;5054565;28;19991;-89
2022/04/06 12:54:48;;;;;;;;;;;20.40;45.40;;;;;;5058878;28;20374;-90
2022/04/06 12:57:28;;;;;;;;;;;20.70;43.60;;;;;;5054586;28;19947;-89
2022/04/06 12:59:53;;;;;;;;;;;20.80;44.50;;;;;;5045175;28;19932;-90
2022/04/06 13:02:20;;;;;;;;;;;20.50;44.00;;;;;;5046980;28;19925;-90
2022/04/06 13:04:46;;;;;;;;;;;20.50;43.90;;;;;;5061072;28;19913;-89
2022/04/06 13:07:12;;;;;;;;;;;20.50;43.90;;;;;;5051991;28;19936;-89
2022/04/06 13:09:58;;;;;;;;;;;20.40;43.60;;;;;;5047909;28;19929;-90
2022/04/06 13:12:25;;;;;;;;;;;20.30;43.70;;;;;;5046673;28;21268;-90
2022/04/06 13:14:52;;;;;;;;;;;20.40;42.90;;;;;;5049217;28;20011;-89
2022/04/06 13:17:18;;;;;;;;;;;20.20;45.60;;;;;;5048552;28;20428;-89
2022/04/06 13:19:44;;;;;;;;;;;19.70;44.50;;;;;;5048177;28;19931;-89
2022/04/06 13:22:10;;;;;;;;;;;19.10;45.60;;;;;;5045134;28;19967;-89
2022/04/06 13:24:36;;;;;;;;;;;18.80;46.20;;;;;;5050115;28;19928;-89
2022/04/06 13:27:03;;;;;;;;;;;18.40;47.20;;;;;;5049314;28;19916;-89
2022/04/06 13:29:28;;;;;;;;;;;18.20;48.60;;;;;;5045797;28;19913;-90
2022/04/06 13:31:54;;;;;;;;;;;18.10;49.90;;;;;;5048415;28;20342;-89
2022/04/06 13:34:20;;;;;;;;;;;18.10;50.70;;;;;;5052020;28;20350;-89
2022/04/06 13:36:46;;;;;;;;;;;18.30;51.00;;;;;;5054683;28;19999;-90
2022/04/06 13:39:12;;;;;;;;;;;18.70;49.40;;;;;;5052496;28;20017;-90
2022/04/06 13:41:38;;;;;;;;;;;19.10;48.50;;;;;;5047374;28;19917;-90
2022/04/06 13:44:04;;;;;;;;;;;19.80;48.40;;;;;;5054143;28;19920;-90
2022/04/06 13:46:29;;;;;;;;;;;20.30;47.10;;;;;;5048932;28;19917;-90
2022/04/06 13:48:57;;;;;;;;;;;20.50;46.30;;;;;;5051276;28;20392;-90
2022/04/06 13:51:23;;;;;;;;;;;20.70;45.70;;;;;;5051037;28;20011;-90
2022/04/06 13:53:49;;;;;;;;;;;20.80;45.30;;;;;;5054967;28;20027;-90
2022/04/06 13:56:15;;;;;;;;;;;21.30;45.90;;;;;;5054014;28;20405;-90
2022/04/06 13:58:40;;;;;;;;;;;21.80;45.00;;;;;;5056750;28;19913;-90
2022/04/06 14:01:06;;;;;;;;;;;22.10;42.60;;;;;;5056656;28;19936;-89
2022/04/06 14:03:31;;;;;;;;;;;21.50;42.90;;;;;;5055889;28;20283;-89
2022/04/06 14:05:57;;;;;;;;;;;21.10;44.50;;;;;;5052445;28;19935;-89
2022/04/06 14:08:24;;;;;;;;;;;20.60;45.40;;;;;;5051921;28;19912;-89
2022/04/06 14:10:50;;;;;;;;;;;20.00;46.80;;;;;;5051569;28;19912;-90
2022/04/06 14:13:16;;;;;;;;;;;19.70;46.20;;;;;;5051629;28;19919;-89
2022/04/06 14:15:42;;;;;;;;;;;19.70;46.40;;;;;;5054821;28;19913;-90
2022/04/06 14:18:07;;;;;;;;;;;19.70;47.20;;;;;;5051462;28;19913;-90
2022/04/06 14:20:33;;;;;;;;;;;19.80;46.60;;;;;;5056890;28;20386;-90
2022/04/06 14:22:58;;;;;;;;;;;20.10;46.60;;;;;;5055329;28;19974;-89
2022/04/06 14:25:24;;;;;;;;;;;20.40;46.70;;;;;;5058042;28;20275;-90
2022/04/06 14:27:50;;;;;;;;;;;21.30;44.90;;;;;;5054817;28;19924;-90
2022/04/06 14:30:16;;;;;;;;;;;22.50;41.60;;;;;;5058662;28;19920;-90
2022/04/06 14:32:42;;;;;;;;;;;23.40;38.90;;;;;;5054932;28;19920;-90
2022/04/06 14:35:08;;;;;;;;;;;24.10;37.90;;;;;;5049493;28;20291;-89
2022/04/06 14:37:34;;;;;;;;;;;25.10;36.90;;;;;;5056630;28;19913;-90
2022/04/06 14:39:59;;;;;;;;;;;26.00;35.50;;;;;;5053033;28;19916;-89
2022/04/06 14:42:25;;;;;;;;;;;26.60;33.80;;;;;;5054767;28;19917;-89
2022/04/06 14:44:50;;;;;;;;;;;26.30;34.20;;;;;;5052723;28;20346;-89
2022/04/06 14:47:17;;;;;;;;;;;25.80;34.80;;;;;;5050790;28;20283;-89
2022/04/06 14:49:43;;;;;;;;;;;25.30;35.60;;;;;;5048305;28;19912;-89